sensor_id;sensor_type;location;lat;lon;timestamp;P1;durP1;ratioP1;P2;durP2;ratioP2
73850;SDS011;62190;51.548;5.688;2023-04-24T00:00:15;15.63;;;9.03;;
73850;SDS011;62190;51.548;5.688;2023-04-24T00:02:43;13.90;;;9.18;;
73850;SDS011;62190;51.548;5.688;2023-04-24T00:05:16;12.78;;;9.18;;
73850;SDS011;62190;51.548;5.688;2023-04-24T00:07:45;15.20;;;9.85;;
73850;SDS011;62190;51.548;5.688;2023-04-24T00:10:14;17.87;;;10.70;;
73850;SDS011;62190;51.548;5.688;2023-04-24T00:12:43;22.02;;;11.65;;
73850;SDS011;62190;51.548;5.688;2023-04-24T00:15:10;17.60;;;11.33;;
73850;SDS011;62190;51.548;5.688;2023-04-24T00:17:39;22.02;;;12.47;;
73850;SDS011;62190;51.548;5.688;2023-04-24T00:20:06;17.70;;;11.08;;
73850;SDS011;62190;51.548;5.688;2023-04-24T00:22:37;23.25;;;11.50;;
73850;SDS011;62190;51.548;5.688;2023-04-24T00:25:04;18.20;;;11.43;;
73850;SDS011;62190;51.548;5.688;2023-04-24T00:27:32;21.70;;;13.08;;
73850;SDS011;62190;51.548;5.688;2023-04-24T00:30:01;20.17;;;12.37;;
73850;SDS011;62190;51.548;5.688;2023-04-24T00:32:29;21.48;;;12.80;;
73850;SDS011;62190;51.548;5.688;2023-04-24T00:34:57;23.38;;;11.95;;
73850;SDS011;62190;51.548;5.688;2023-04-24T00:37:24;19.42;;;13.22;;
73850;SDS011;62190;51.548;5.688;2023-04-24T00:39:51;22.17;;;13.20;;
73850;SDS011;62190;51.548;5.688;2023-04-24T00:42:19;21.70;;;12.98;;
73850;SDS011;62190;51.548;5.688;2023-04-24T00:44:46;23.05;;;13.55;;
73850;SDS011;62190;51.548;5.688;2023-04-24T00:47:15;23.40;;;14.05;;
73850;SDS011;62190;51.548;5.688;2023-04-24T00:49:44;19.12;;;12.68;;
73850;SDS011;62190;51.548;5.688;2023-04-24T00:52:11;22.40;;;14.40;;
73850;SDS011;62190;51.548;5.688;2023-04-24T00:54:40;22.17;;;14.15;;
73850;SDS011;62190;51.548;5.688;2023-04-24T00:57:08;27.00;;;16.77;;
73850;SDS011;62190;51.548;5.688;2023-04-24T00:59:36;27.07;;;16.55;;
73850;SDS011;62190;51.548;5.688;2023-04-24T01:02:08;29.72;;;16.05;;
73850;SDS011;62190;51.548;5.688;2023-04-24T01:04:36;26.12;;;15.88;;
73850;SDS011;62190;51.548;5.688;2023-04-24T01:07:04;29.90;;;16.75;;
73850;SDS011;62190;51.548;5.688;2023-04-24T01:09:33;25.52;;;16.27;;
73850;SDS011;62190;51.548;5.688;2023-04-24T01:12:00;30.35;;;18.17;;
73850;SDS011;62190;51.548;5.688;2023-04-24T01:14:27;28.47;;;16.62;;
73850;SDS011;62190;51.548;5.688;2023-04-24T01:16:55;27.15;;;17.12;;
73850;SDS011;62190;51.548;5.688;2023-04-24T01:19:23;29.90;;;17.27;;
73850;SDS011;62190;51.548;5.688;2023-04-24T01:21:50;32.03;;;18.77;;
73850;SDS011;62190;51.548;5.688;2023-04-24T01:24:20;28.02;;;17.55;;
73850;SDS011;62190;51.548;5.688;2023-04-24T01:26:47;29.52;;;18.10;;
73850;SDS011;62190;51.548;5.688;2023-04-24T01:29:14;29.63;;;18.80;;
73850;SDS011;62190;51.548;5.688;2023-04-24T01:31:44;31.75;;;18.37;;
73850;SDS011;62190;51.548;5.688;2023-04-24T01:34:11;26.10;;;16.97;;
73850;SDS011;62190;51.548;5.688;2023-04-24T01:36:38;32.93;;;19.48;;
73850;SDS011;62190;51.548;5.688;2023-04-24T01:39:06;38.70;;;20.85;;
73850;SDS011;62190;51.548;5.688;2023-04-24T01:41:36;31.65;;;19.05;;
73850;SDS011;62190;51.548;5.688;2023-04-24T01:44:03;36.40;;;20.62;;
73850;SDS011;62190;51.548;5.688;2023-04-24T01:46:31;37.63;;;20.90;;
73850;SDS011;62190;51.548;5.688;2023-04-24T01:49:03;36.28;;;22.05;;
73850;SDS011;62190;51.548;5.688;2023-04-24T01:51:31;36.20;;;21.87;;
73850;SDS011;62190;51.548;5.688;2023-04-24T01:53:59;39.90;;;22.60;;
73850;SDS011;62190;51.548;5.688;2023-04-24T01:56:28;39.73;;;22.80;;
73850;SDS011;62190;51.548;5.688;2023-04-24T01:58:56;39.60;;;23.45;;
73850;SDS011;62190;51.548;5.688;2023-04-24T02:01:24;46.90;;;23.57;;
73850;SDS011;62190;51.548;5.688;2023-04-24T02:03:51;43.28;;;22.87;;
73850;SDS011;62190;51.548;5.688;2023-04-24T02:06:22;41.40;;;22.85;;
73850;SDS011;62190;51.548;5.688;2023-04-24T02:08:53;43.13;;;23.52;;
73850;SDS011;62190;51.548;5.688;2023-04-24T02:11:21;41.95;;;22.73;;
73850;SDS011;62190;51.548;5.688;2023-04-24T02:13:48;40.48;;;22.27;;
73850;SDS011;62190;51.548;5.688;2023-04-24T02:16:17;42.38;;;24.27;;
73850;SDS011;62190;51.548;5.688;2023-04-24T02:18:44;41.85;;;25.10;;
73850;SDS011;62190;51.548;5.688;2023-04-24T02:21:13;42.30;;;23.52;;
73850;SDS011;62190;51.548;5.688;2023-04-24T02:23:42;44.18;;;23.98;;
73850;SDS011;62190;51.548;5.688;2023-04-24T02:26:10;38.73;;;25.43;;
73850;SDS011;62190;51.548;5.688;2023-04-24T02:28:40;40.20;;;23.30;;
73850;SDS011;62190;51.548;5.688;2023-04-24T02:31:06;39.80;;;24.23;;
73850;SDS011;62190;51.548;5.688;2023-04-24T02:33:36;41.35;;;23.47;;
73850;SDS011;62190;51.548;5.688;2023-04-24T02:36:06;46.48;;;25.43;;
73850;SDS011;62190;51.548;5.688;2023-04-24T02:38:33;45.43;;;25.75;;
73850;SDS011;62190;51.548;5.688;2023-04-24T02:41:00;46.95;;;26.40;;
73850;SDS011;62190;51.548;5.688;2023-04-24T02:43:31;47.00;;;25.62;;
73850;SDS011;62190;51.548;5.688;2023-04-24T02:46:00;47.93;;;26.48;;
73850;SDS011;62190;51.548;5.688;2023-04-24T02:48:28;44.50;;;25.52;;
73850;SDS011;62190;51.548;5.688;2023-04-24T02:50:57;50.90;;;25.70;;
73850;SDS011;62190;51.548;5.688;2023-04-24T02:53:26;46.37;;;25.08;;
73850;SDS011;62190;51.548;5.688;2023-04-24T02:55:57;48.23;;;25.82;;
73850;SDS011;62190;51.548;5.688;2023-04-24T02:58:27;44.08;;;24.92;;
73850;SDS011;62190;51.548;5.688;2023-04-24T03:00:55;46.28;;;23.75;;
73850;SDS011;62190;51.548;5.688;2023-04-24T03:03:23;45.88;;;24.52;;
73850;SDS011;62190;51.548;5.688;2023-04-24T03:05:50;43.55;;;26.12;;
73850;SDS011;62190;51.548;5.688;2023-04-24T03:08:19;47.50;;;24.47;;
73850;SDS011;62190;51.548;5.688;2023-04-24T03:10:47;41.53;;;23.47;;
73850;SDS011;62190;51.548;5.688;2023-04-24T03:13:15;43.63;;;23.92;;
73850;SDS011;62190;51.548;5.688;2023-04-24T03:15:42;42.78;;;24.70;;
73850;SDS011;62190;51.548;5.688;2023-04-24T03:18:13;44.77;;;24.75;;
73850;SDS011;62190;51.548;5.688;2023-04-24T03:20:40;43.13;;;24.55;;
73850;SDS011;62190;51.548;5.688;2023-04-24T03:23:07;44.63;;;24.43;;
73850;SDS011;62190;51.548;5.688;2023-04-24T03:25:35;44.18;;;24.60;;
73850;SDS011;62190;51.548;5.688;2023-04-24T03:28:02;45.85;;;25.15;;
73850;SDS011;62190;51.548;5.688;2023-04-24T03:30:29;42.93;;;24.00;;
73850;SDS011;62190;51.548;5.688;2023-04-24T03:32:59;39.65;;;23.30;;
73850;SDS011;62190;51.548;5.688;2023-04-24T03:35:26;44.38;;;22.75;;
73850;SDS011;62190;51.548;5.688;2023-04-24T03:37:53;40.15;;;23.35;;
73850;SDS011;62190;51.548;5.688;2023-04-24T03:40:21;41.85;;;23.50;;
73850;SDS011;62190;51.548;5.688;2023-04-24T03:42:50;43.23;;;23.18;;
73850;SDS011;62190;51.548;5.688;2023-04-24T03:45:21;40.08;;;21.15;;
73850;SDS011;62190;51.548;5.688;2023-04-24T03:47:49;41.50;;;21.50;;
73850;SDS011;62190;51.548;5.688;2023-04-24T03:50:19;39.42;;;21.42;;
73850;SDS011;62190;51.548;5.688;2023-04-24T03:52:45;41.63;;;21.37;;
73850;SDS011;62190;51.548;5.688;2023-04-24T03:55:15;36.90;;;21.07;;
73850;SDS011;62190;51.548;5.688;2023-04-24T03:57:42;34.92;;;21.00;;
73850;SDS011;62190;51.548;5.688;2023-04-24T04:00:09;33.42;;;20.32;;
73850;SDS011;62190;51.548;5.688;2023-04-24T04:02:40;35.28;;;20.40;;
73850;SDS011;62190;51.548;5.688;2023-04-24T04:05:09;39.10;;;20.35;;
73850;SDS011;62190;51.548;5.688;2023-04-24T04:07:36;31.45;;;20.45;;
73850;SDS011;62190;51.548;5.688;2023-04-24T04:10:03;33.75;;;19.60;;
73850;SDS011;62190;51.548;5.688;2023-04-24T04:12:32;30.25;;;18.57;;
73850;SDS011;62190;51.548;5.688;2023-04-24T04:15:02;36.53;;;19.62;;
73850;SDS011;62190;51.548;5.688;2023-04-24T04:17:32;31.77;;;18.60;;
73850;SDS011;62190;51.548;5.688;2023-04-24T04:20:00;32.50;;;18.75;;
73850;SDS011;62190;51.548;5.688;2023-04-24T04:22:29;33.88;;;18.20;;
73850;SDS011;62190;51.548;5.688;2023-04-24T04:24:56;37.67;;;19.07;;
73850;SDS011;62190;51.548;5.688;2023-04-24T04:27:23;30.52;;;19.52;;
73850;SDS011;62190;51.548;5.688;2023-04-24T04:29:50;32.45;;;19.10;;
73850;SDS011;62190;51.548;5.688;2023-04-24T04:32:19;29.40;;;17.67;;
73850;SDS011;62190;51.548;5.688;2023-04-24T04:34:47;34.40;;;18.67;;
73850;SDS011;62190;51.548;5.688;2023-04-24T04:37:14;30.60;;;17.65;;
73850;SDS011;62190;51.548;5.688;2023-04-24T04:39:42;26.87;;;15.98;;
73850;SDS011;62190;51.548;5.688;2023-04-24T04:42:11;25.77;;;16.57;;
73850;SDS011;62190;51.548;5.688;2023-04-24T04:44:39;25.32;;;15.95;;
73850;SDS011;62190;51.548;5.688;2023-04-24T04:47:06;26.57;;;14.83;;
73850;SDS011;62190;51.548;5.688;2023-04-24T04:49:35;29.20;;;15.88;;
73850;SDS011;62190;51.548;5.688;2023-04-24T04:52:04;30.10;;;15.03;;
73850;SDS011;62190;51.548;5.688;2023-04-24T04:54:33;25.52;;;15.32;;
73850;SDS011;62190;51.548;5.688;2023-04-24T04:57:00;25.72;;;14.70;;
73850;SDS011;62190;51.548;5.688;2023-04-24T04:59:27;23.60;;;14.80;;
73850;SDS011;62190;51.548;5.688;2023-04-24T05:01:55;25.20;;;15.18;;
73850;SDS011;62190;51.548;5.688;2023-04-24T05:04:23;22.00;;;12.65;;
73850;SDS011;62190;51.548;5.688;2023-04-24T05:06:52;23.80;;;14.03;;
73850;SDS011;62190;51.548;5.688;2023-04-24T05:09:23;23.85;;;13.83;;
73850;SDS011;62190;51.548;5.688;2023-04-24T05:11:52;22.77;;;13.03;;
73850;SDS011;62190;51.548;5.688;2023-04-24T05:14:21;23.85;;;13.55;;
73850;SDS011;62190;51.548;5.688;2023-04-24T05:16:50;19.00;;;11.73;;
73850;SDS011;62190;51.548;5.688;2023-04-24T05:19:17;20.17;;;12.75;;
73850;SDS011;62190;51.548;5.688;2023-04-24T05:21:44;18.27;;;11.85;;
73850;SDS011;62190;51.548;5.688;2023-04-24T05:24:13;22.42;;;13.50;;
73850;SDS011;62190;51.548;5.688;2023-04-24T05:26:42;20.55;;;12.85;;
73850;SDS011;62190;51.548;5.688;2023-04-24T05:29:11;16.60;;;11.85;;
73850;SDS011;62190;51.548;5.688;2023-04-24T05:31:38;17.90;;;11.90;;
73850;SDS011;62190;51.548;5.688;2023-04-24T05:34:07;19.65;;;11.00;;
73850;SDS011;62190;51.548;5.688;2023-04-24T05:36:37;16.30;;;10.58;;
73850;SDS011;62190;51.548;5.688;2023-04-24T05:39:05;14.28;;;9.20;;
73850;SDS011;62190;51.548;5.688;2023-04-24T05:41:36;15.83;;;10.48;;
73850;SDS011;62190;51.548;5.688;2023-04-24T05:44:07;18.07;;;9.90;;
73850;SDS011;62190;51.548;5.688;2023-04-24T05:46:35;15.48;;;10.05;;
73850;SDS011;62190;51.548;5.688;2023-04-24T05:49:06;16.73;;;9.70;;
73850;SDS011;62190;51.548;5.688;2023-04-24T05:51:35;13.70;;;9.18;;
73850;SDS011;62190;51.548;5.688;2023-04-24T05:54:02;11.05;;;8.38;;
73850;SDS011;62190;51.548;5.688;2023-04-24T05:56:30;13.60;;;8.83;;
73850;SDS011;62190;51.548;5.688;2023-04-24T05:58:58;7.65;;;4.65;;
73850;SDS011;62190;51.548;5.688;2023-04-24T06:01:27;9.50;;;5.97;;
73850;SDS011;62190;51.548;5.688;2023-04-24T06:03:55;7.45;;;5.17;;
73850;SDS011;62190;51.548;5.688;2023-04-24T06:06:23;8.13;;;4.58;;
73850;SDS011;62190;51.548;5.688;2023-04-24T06:08:51;7.35;;;3.90;;
73850;SDS011;62190;51.548;5.688;2023-04-24T06:11:18;6.85;;;3.60;;
73850;SDS011;62190;51.548;5.688;2023-04-24T06:13:46;5.25;;;3.60;;
73850;SDS011;62190;51.548;5.688;2023-04-24T06:16:13;4.67;;;3.27;;
73850;SDS011;62190;51.548;5.688;2023-04-24T06:18:41;6.67;;;2.95;;
73850;SDS011;62190;51.548;5.688;2023-04-24T06:21:08;4.72;;;3.50;;
73850;SDS011;62190;51.548;5.688;2023-04-24T06:23:35;8.10;;;3.40;;
73850;SDS011;62190;51.548;5.688;2023-04-24T06:26:03;6.42;;;3.83;;
73850;SDS011;62190;51.548;5.688;2023-04-24T06:28:30;4.45;;;3.30;;
73850;SDS011;62190;51.548;5.688;2023-04-24T06:30:57;6.05;;;3.72;;
73850;SDS011;62190;51.548;5.688;2023-04-24T06:33:25;5.92;;;4.17;;
73850;SDS011;62190;51.548;5.688;2023-04-24T06:35:52;4.85;;;3.77;;
73850;SDS011;62190;51.548;5.688;2023-04-24T06:38:19;5.97;;;4.00;;
73850;SDS011;62190;51.548;5.688;2023-04-24T06:40:47;5.30;;;3.70;;
73850;SDS011;62190;51.548;5.688;2023-04-24T06:43:14;6.60;;;3.87;;
73850;SDS011;62190;51.548;5.688;2023-04-24T06:45:41;5.75;;;4.03;;
73850;SDS011;62190;51.548;5.688;2023-04-24T06:48:09;6.25;;;4.00;;
73850;SDS011;62190;51.548;5.688;2023-04-24T06:50:37;6.00;;;4.15;;
73850;SDS011;62190;51.548;5.688;2023-04-24T06:53:04;7.70;;;4.12;;
73850;SDS011;62190;51.548;5.688;2023-04-24T06:55:31;6.17;;;4.50;;
73850;SDS011;62190;51.548;5.688;2023-04-24T06:57:59;6.62;;;4.50;;
73850;SDS011;62190;51.548;5.688;2023-04-24T07:00:26;6.85;;;4.80;;
73850;SDS011;62190;51.548;5.688;2023-04-24T07:02:55;6.75;;;4.55;;
73850;SDS011;62190;51.548;5.688;2023-04-24T07:05:22;5.20;;;4.45;;
73850;SDS011;62190;51.548;5.688;2023-04-24T07:07:50;7.10;;;4.05;;
73850;SDS011;62190;51.548;5.688;2023-04-24T07:10:17;4.80;;;2.98;;
73850;SDS011;62190;51.548;5.688;2023-04-24T07:12:45;5.05;;;3.70;;
73850;SDS011;62190;51.548;5.688;2023-04-24T07:15:13;4.45;;;2.80;;
73850;SDS011;62190;51.548;5.688;2023-04-24T07:17:40;5.78;;;4.45;;
73850;SDS011;62190;51.548;5.688;2023-04-24T07:20:09;7.15;;;4.30;;
73850;SDS011;62190;51.548;5.688;2023-04-24T07:22:39;7.90;;;5.90;;
73850;SDS011;62190;51.548;5.688;2023-04-24T07:25:06;11.48;;;7.35;;
73850;SDS011;62190;51.548;5.688;2023-04-24T07:27:37;12.58;;;8.20;;
73850;SDS011;62190;51.548;5.688;2023-04-24T07:30:04;16.62;;;8.20;;
73850;SDS011;62190;51.548;5.688;2023-04-24T07:32:36;15.68;;;9.00;;
73850;SDS011;62190;51.548;5.688;2023-04-24T07:35:04;16.67;;;10.00;;
73850;SDS011;62190;51.548;5.688;2023-04-24T07:37:32;22.70;;;12.58;;
73850;SDS011;62190;51.548;5.688;2023-04-24T07:39:59;21.82;;;12.23;;
73850;SDS011;62190;51.548;5.688;2023-04-24T07:42:27;20.97;;;12.30;;
73850;SDS011;62190;51.548;5.688;2023-04-24T07:45:00;20.92;;;11.80;;
73850;SDS011;62190;51.548;5.688;2023-04-24T07:47:27;22.37;;;12.13;;
73850;SDS011;62190;51.548;5.688;2023-04-24T07:49:55;23.12;;;10.10;;
73850;SDS011;62190;51.548;5.688;2023-04-24T07:52:24;16.57;;;8.10;;
73850;SDS011;62190;51.548;5.688;2023-04-24T07:54:54;23.92;;;10.95;;
73850;SDS011;62190;51.548;5.688;2023-04-24T07:57:24;20.90;;;11.10;;
73850;SDS011;62190;51.548;5.688;2023-04-24T07:59:51;19.07;;;11.48;;
73850;SDS011;62190;51.548;5.688;2023-04-24T08:02:18;24.12;;;13.05;;
73850;SDS011;62190;51.548;5.688;2023-04-24T08:04:47;22.45;;;10.55;;
73850;SDS011;62190;51.548;5.688;2023-04-24T08:07:17;23.42;;;11.43;;
73850;SDS011;62190;51.548;5.688;2023-04-24T08:09:44;17.98;;;8.58;;
73850;SDS011;62190;51.548;5.688;2023-04-24T08:12:16;16.45;;;8.58;;
73850;SDS011;62190;51.548;5.688;2023-04-24T08:14:45;21.68;;;8.75;;
73850;SDS011;62190;51.548;5.688;2023-04-24T08:17:14;16.87;;;8.55;;
73850;SDS011;62190;51.548;5.688;2023-04-24T08:19:43;23.40;;;9.45;;
73850;SDS011;62190;51.548;5.688;2023-04-24T08:22:12;21.35;;;8.88;;
73850;SDS011;62190;51.548;5.688;2023-04-24T08:24:41;20.17;;;8.63;;
73850;SDS011;62190;51.548;5.688;2023-04-24T08:27:09;20.12;;;8.03;;
73850;SDS011;62190;51.548;5.688;2023-04-24T08:29:37;16.75;;;7.58;;
73850;SDS011;62190;51.548;5.688;2023-04-24T08:32:04;20.00;;;6.95;;
73850;SDS011;62190;51.548;5.688;2023-04-24T08:34:31;16.93;;;7.92;;
73850;SDS011;62190;51.548;5.688;2023-04-24T08:36:59;17.70;;;7.20;;
73850;SDS011;62190;51.548;5.688;2023-04-24T08:39:26;19.92;;;7.72;;
73850;SDS011;62190;51.548;5.688;2023-04-24T08:41:54;15.18;;;6.65;;
73850;SDS011;62190;51.548;5.688;2023-04-24T08:44:22;13.95;;;5.97;;
73850;SDS011;62190;51.548;5.688;2023-04-24T08:46:49;12.03;;;5.97;;
73850;SDS011;62190;51.548;5.688;2023-04-24T08:49:16;11.50;;;4.55;;
73850;SDS011;62190;51.548;5.688;2023-04-24T08:51:44;12.50;;;3.92;;
73850;SDS011;62190;51.548;5.688;2023-04-24T08:54:17;10.13;;;4.42;;
73850;SDS011;62190;51.548;5.688;2023-04-24T08:56:44;13.15;;;4.42;;
73850;SDS011;62190;51.548;5.688;2023-04-24T08:59:12;11.45;;;4.62;;
73850;SDS011;62190;51.548;5.688;2023-04-24T09:01:40;13.43;;;5.03;;
73850;SDS011;62190;51.548;5.688;2023-04-24T09:04:10;10.48;;;4.78;;
73850;SDS011;62190;51.548;5.688;2023-04-24T09:06:38;12.07;;;4.10;;
73850;SDS011;62190;51.548;5.688;2023-04-24T09:09:05;8.78;;;4.05;;
73850;SDS011;62190;51.548;5.688;2023-04-24T09:11:33;18.35;;;6.40;;
73850;SDS011;62190;51.548;5.688;2023-04-24T09:14:00;18.37;;;4.75;;
73850;SDS011;62190;51.548;5.688;2023-04-24T09:16:27;16.48;;;5.40;;
73850;SDS011;62190;51.548;5.688;2023-04-24T09:18:55;15.53;;;5.17;;
73850;SDS011;62190;51.548;5.688;2023-04-24T09:21:22;15.43;;;4.65;;
73850;SDS011;62190;51.548;5.688;2023-04-24T09:24:00;11.48;;;4.05;;
73850;SDS011;62190;51.548;5.688;2023-04-24T09:26:30;12.35;;;4.72;;
73850;SDS011;62190;51.548;5.688;2023-04-24T09:28:58;18.37;;;5.12;;
73850;SDS011;62190;51.548;5.688;2023-04-24T09:31:27;21.85;;;4.37;;
73850;SDS011;62190;51.548;5.688;2023-04-24T09:33:56;15.72;;;4.80;;
73850;SDS011;62190;51.548;5.688;2023-04-24T09:36:28;12.63;;;3.65;;
73850;SDS011;62190;51.548;5.688;2023-04-24T09:38:59;13.98;;;3.62;;
73850;SDS011;62190;51.548;5.688;2023-04-24T09:41:27;7.28;;;2.70;;
73850;SDS011;62190;51.548;5.688;2023-04-24T09:43:55;12.20;;;3.50;;
73850;SDS011;62190;51.548;5.688;2023-04-24T09:46:30;12.18;;;3.60;;
73850;SDS011;62190;51.548;5.688;2023-04-24T09:48:57;10.43;;;3.45;;
73850;SDS011;62190;51.548;5.688;2023-04-24T09:51:35;8.63;;;3.08;;
73850;SDS011;62190;51.548;5.688;2023-04-24T09:54:03;13.48;;;3.50;;
73850;SDS011;62190;51.548;5.688;2023-04-24T09:56:34;10.60;;;3.77;;
73850;SDS011;62190;51.548;5.688;2023-04-24T09:59:05;11.18;;;3.10;;
73850;SDS011;62190;51.548;5.688;2023-04-24T10:01:33;11.15;;;2.50;;
73850;SDS011;62190;51.548;5.688;2023-04-24T10:04:00;16.62;;;3.62;;
73850;SDS011;62190;51.548;5.688;2023-04-24T10:06:34;12.93;;;3.00;;
73850;SDS011;62190;51.548;5.688;2023-04-24T10:09:02;11.38;;;3.37;;
73850;SDS011;62190;51.548;5.688;2023-04-24T10:11:29;10.72;;;3.42;;
73850;SDS011;62190;51.548;5.688;2023-04-24T10:13:57;11.40;;;3.45;;
73850;SDS011;62190;51.548;5.688;2023-04-24T10:16:24;10.48;;;3.47;;
73850;SDS011;62190;51.548;5.688;2023-04-24T10:18:52;9.78;;;3.80;;
73850;SDS011;62190;51.548;5.688;2023-04-24T10:21:21;11.18;;;3.75;;
73850;SDS011;62190;51.548;5.688;2023-04-24T10:23:48;11.18;;;3.15;;
73850;SDS011;62190;51.548;5.688;2023-04-24T10:26:16;12.47;;;4.90;;
73850;SDS011;62190;51.548;5.688;2023-04-24T10:28:45;8.20;;;2.75;;
73850;SDS011;62190;51.548;5.688;2023-04-24T10:31:14;9.65;;;1.95;;
73850;SDS011;62190;51.548;5.688;2023-04-24T10:33:43;9.50;;;2.08;;
73850;SDS011;62190;51.548;5.688;2023-04-24T10:36:10;5.42;;;1.50;;
73850;SDS011;62190;51.548;5.688;2023-04-24T10:38:40;8.45;;;1.92;;
73850;SDS011;62190;51.548;5.688;2023-04-24T10:41:08;6.20;;;1.50;;
73850;SDS011;62190;51.548;5.688;2023-04-24T10:43:39;4.55;;;1.57;;
73850;SDS011;62190;51.548;5.688;2023-04-24T10:46:07;6.03;;;1.60;;
73850;SDS011;62190;51.548;5.688;2023-04-24T10:48:35;5.20;;;1.20;;
73850;SDS011;62190;51.548;5.688;2023-04-24T10:51:06;4.60;;;1.50;;
73850;SDS011;62190;51.548;5.688;2023-04-24T10:53:38;3.72;;;1.17;;
73850;SDS011;62190;51.548;5.688;2023-04-24T10:56:06;5.25;;;1.20;;
73850;SDS011;62190;51.548;5.688;2023-04-24T10:58:42;6.78;;;1.30;;
73850;SDS011;62190;51.548;5.688;2023-04-24T11:01:30;8.33;;;1.45;;
73850;SDS011;62190;51.548;5.688;2023-04-24T11:04:00;4.75;;;1.10;;
73850;SDS011;62190;51.548;5.688;2023-04-24T11:06:33;6.17;;;1.45;;
73850;SDS011;62190;51.548;5.688;2023-04-24T11:09:05;2.10;;;1.15;;
73850;SDS011;62190;51.548;5.688;2023-04-24T11:11:44;4.72;;;1.25;;
73850;SDS011;62190;51.548;5.688;2023-04-24T11:14:17;3.87;;;1.30;;
73850;SDS011;62190;51.548;5.688;2023-04-24T11:16:55;2.08;;;0.90;;
73850;SDS011;62190;51.548;5.688;2023-04-24T11:19:25;5.80;;;0.70;;
73850;SDS011;62190;51.548;5.688;2023-04-24T11:21:58;2.62;;;0.70;;
73850;SDS011;62190;51.548;5.688;2023-04-24T11:24:32;2.80;;;0.60;;
73850;SDS011;62190;51.548;5.688;2023-04-24T11:29:49;4.08;;;1.02;;
73850;SDS011;62190;51.548;5.688;2023-04-24T11:35:14;2.95;;;0.90;;
73850;SDS011;62190;51.548;5.688;2023-04-24T11:37:49;2.62;;;0.72;;
73850;SDS011;62190;51.548;5.688;2023-04-24T11:40:18;4.37;;;0.90;;
73850;SDS011;62190;51.548;5.688;2023-04-24T11:42:52;2.33;;;0.98;;
73850;SDS011;62190;51.548;5.688;2023-04-24T11:45:25;5.12;;;0.70;;
73850;SDS011;62190;51.548;5.688;2023-04-24T11:47:54;1.98;;;0.62;;
73850;SDS011;62190;51.548;5.688;2023-04-24T11:50:22;2.80;;;0.68;;
73850;SDS011;62190;51.548;5.688;2023-04-24T11:52:51;3.80;;;0.80;;
73850;SDS011;62190;51.548;5.688;2023-04-24T11:57:52;2.40;;;0.60;;
73850;SDS011;62190;51.548;5.688;2023-04-24T12:00:25;1.40;;;0.53;;
73850;SDS011;62190;51.548;5.688;2023-04-24T12:03:05;3.42;;;0.55;;
73850;SDS011;62190;51.548;5.688;2023-04-24T12:05:34;4.33;;;0.93;;
73850;SDS011;62190;51.548;5.688;2023-04-24T12:08:02;2.55;;;0.80;;
73850;SDS011;62190;51.548;5.688;2023-04-24T12:10:31;2.67;;;0.90;;
73850;SDS011;62190;51.548;5.688;2023-04-24T12:13:00;2.37;;;0.60;;
73850;SDS011;62190;51.548;5.688;2023-04-24T12:15:27;4.95;;;1.20;;
73850;SDS011;62190;51.548;5.688;2023-04-24T12:17:55;6.12;;;0.90;;
73850;SDS011;62190;51.548;5.688;2023-04-24T12:20:32;4.05;;;0.90;;
73850;SDS011;62190;51.548;5.688;2023-04-24T12:23:00;2.55;;;0.60;;
73850;SDS011;62190;51.548;5.688;2023-04-24T12:25:28;4.85;;;0.75;;
73850;SDS011;62190;51.548;5.688;2023-04-24T12:30:32;3.87;;;1.20;;
73850;SDS011;62190;51.548;5.688;2023-04-24T12:33:03;1.75;;;0.70;;
73850;SDS011;62190;51.548;5.688;2023-04-24T12:35:33;2.90;;;0.70;;
73850;SDS011;62190;51.548;5.688;2023-04-24T12:38:09;3.33;;;1.07;;
73850;SDS011;62190;51.548;5.688;2023-04-24T12:40:38;2.70;;;1.27;;
73850;SDS011;62190;51.548;5.688;2023-04-24T12:43:17;7.97;;;0.95;;
73850;SDS011;62190;51.548;5.688;2023-04-24T12:45:40;4.12;;;0.75;;
73850;SDS011;62190;51.548;5.688;2023-04-24T12:48:08;4.15;;;0.90;;
73850;SDS011;62190;51.548;5.688;2023-04-24T12:50:35;3.45;;;0.90;;
73850;SDS011;62190;51.548;5.688;2023-04-24T12:53:03;3.40;;;0.88;;
73850;SDS011;62190;51.548;5.688;2023-04-24T12:55:30;3.92;;;0.68;;
73850;SDS011;62190;51.548;5.688;2023-04-24T12:57:57;5.00;;;0.72;;
73850;SDS011;62190;51.548;5.688;2023-04-24T13:00:25;2.47;;;0.95;;
73850;SDS011;62190;51.548;5.688;2023-04-24T13:02:52;1.77;;;0.60;;
73850;SDS011;62190;51.548;5.688;2023-04-24T13:05:19;2.92;;;1.00;;
73850;SDS011;62190;51.548;5.688;2023-04-24T13:07:47;3.55;;;0.70;;
73850;SDS011;62190;51.548;5.688;2023-04-24T13:10:14;3.35;;;0.78;;
73850;SDS011;62190;51.548;5.688;2023-04-24T13:12:41;1.85;;;0.68;;
73850;SDS011;62190;51.548;5.688;2023-04-24T13:15:11;7.05;;;0.90;;
73850;SDS011;62190;51.548;5.688;2023-04-24T13:17:39;2.00;;;0.82;;
73850;SDS011;62190;51.548;5.688;2023-04-24T13:20:06;1.37;;;0.60;;
73850;SDS011;62190;51.548;5.688;2023-04-24T13:22:33;4.22;;;0.75;;
73850;SDS011;62190;51.548;5.688;2023-04-24T13:25:02;4.03;;;0.93;;
73850;SDS011;62190;51.548;5.688;2023-04-24T13:27:31;1.50;;;0.75;;
73850;SDS011;62190;51.548;5.688;2023-04-24T13:29:58;2.02;;;0.70;;
73850;SDS011;62190;51.548;5.688;2023-04-24T13:32:25;2.77;;;0.68;;
73850;SDS011;62190;51.548;5.688;2023-04-24T13:34:54;2.72;;;0.80;;
73850;SDS011;62190;51.548;5.688;2023-04-24T13:37:21;3.87;;;0.90;;
73850;SDS011;62190;51.548;5.688;2023-04-24T13:39:48;4.50;;;1.12;;
73850;SDS011;62190;51.548;5.688;2023-04-24T13:42:16;1.55;;;0.70;;
73850;SDS011;62190;51.548;5.688;2023-04-24T13:44:44;3.00;;;1.12;;
73850;SDS011;62190;51.548;5.688;2023-04-24T13:47:11;2.40;;;0.75;;
73850;SDS011;62190;51.548;5.688;2023-04-24T13:49:38;2.08;;;0.70;;
73850;SDS011;62190;51.548;5.688;2023-04-24T13:52:06;3.75;;;0.72;;
73850;SDS011;62190;51.548;5.688;2023-04-24T13:54:33;2.83;;;0.62;;
73850;SDS011;62190;51.548;5.688;2023-04-24T13:57:01;2.20;;;0.70;;
73850;SDS011;62190;51.548;5.688;2023-04-24T13:59:31;1.95;;;0.57;;
73850;SDS011;62190;51.548;5.688;2023-04-24T14:01:58;3.08;;;1.25;;
73850;SDS011;62190;51.548;5.688;2023-04-24T14:04:26;3.42;;;0.90;;
73850;SDS011;62190;51.548;5.688;2023-04-24T14:06:53;4.00;;;1.10;;
73850;SDS011;62190;51.548;5.688;2023-04-24T14:09:21;5.92;;;1.17;;
73850;SDS011;62190;51.548;5.688;2023-04-24T14:11:49;3.37;;;1.15;;
73850;SDS011;62190;51.548;5.688;2023-04-24T14:14:16;6.55;;;1.47;;
73850;SDS011;62190;51.548;5.688;2023-04-24T14:16:43;2.58;;;1.10;;
73850;SDS011;62190;51.548;5.688;2023-04-24T14:19:11;4.85;;;1.47;;
73850;SDS011;62190;51.548;5.688;2023-04-24T14:21:38;4.95;;;1.20;;
73850;SDS011;62190;51.548;5.688;2023-04-24T14:24:05;4.50;;;1.15;;
73850;SDS011;62190;51.548;5.688;2023-04-24T14:26:33;3.80;;;1.40;;
73850;SDS011;62190;51.548;5.688;2023-04-24T14:29:00;3.20;;;1.30;;
73850;SDS011;62190;51.548;5.688;2023-04-24T14:31:27;1.77;;;1.07;;
73850;SDS011;62190;51.548;5.688;2023-04-24T14:33:55;4.53;;;1.27;;
73850;SDS011;62190;51.548;5.688;2023-04-24T14:36:23;3.42;;;1.00;;
73850;SDS011;62190;51.548;5.688;2023-04-24T14:38:50;2.62;;;1.15;;
73850;SDS011;62190;51.548;5.688;2023-04-24T14:41:17;4.92;;;1.20;;
73850;SDS011;62190;51.548;5.688;2023-04-24T14:43:45;5.87;;;1.30;;
73850;SDS011;62190;51.548;5.688;2023-04-24T14:46:12;3.10;;;0.80;;
73850;SDS011;62190;51.548;5.688;2023-04-24T14:48:40;2.70;;;0.95;;
73850;SDS011;62190;51.548;5.688;2023-04-24T14:51:07;2.80;;;0.80;;